Time;durP1;ratioP1;P1;durP2;ratioP2;P2;SDS_P1;SDS_P2;PMS_P1;PMS_P2;Temp;Humidity;BMP_temperature;BMP_pressure;BME280_temperature;BME280_humidity;BME280_pressure;Samples;Min_cycle;Max_cycle;Signal;HPM_P1;HPM_P2
2022/03/19 00:02:01;;;;;;;11.73;3.10;;;4.80;99.90;;;;;;4809261;29;20053;-79
2022/03/19 00:04:27;;;;;;;9.77;3.15;;;4.80;99.90;;;;;;4812270;29;20058;-79
2022/03/19 00:06:52;;;;;;;6.13;2.78;;;4.80;99.90;;;;;;4814080;29;20059;-79
2022/03/19 00:09:18;;;;;;;6.95;2.83;;;5.10;99.90;;;;;;4805348;29;20135;-78
2022/03/19 00:11:44;;;;;;;9.18;2.30;;;5.00;99.90;;;;;;4813970;29;20511;-79
2022/03/19 00:14:12;;;;;;;7.68;2.80;;;4.70;99.90;;;;;;4814960;29;20059;-79
2022/03/19 00:16:38;;;;;;;8.70;2.60;;;4.70;99.90;;;;;;4805082;29;20050;-79
2022/03/19 00:19:05;;;;;;;7.45;2.70;;;4.70;99.90;;;;;;4819552;29;20046;-77
2022/03/19 00:21:31;;;;;;;13.85;2.88;;;4.60;99.90;;;;;;4833301;29;20100;-79
2022/03/19 00:23:57;;;;;;;6.43;3.00;;;4.60;99.90;;;;;;4818931;29;20143;-79
2022/03/19 00:26:23;;;;;;;6.95;2.50;;;4.60;99.90;;;;;;4817643;29;20172;-79
2022/03/19 00:28:48;;;;;;;7.28;2.47;;;4.70;99.90;;;;;;4812777;29;20065;-79
2022/03/19 00:31:14;;;;;;;7.75;2.60;;;4.50;99.90;;;;;;4805504;29;20489;-79
2022/03/19 00:33:40;;;;;;;8.10;2.63;;;4.60;99.90;;;;;;4804596;29;20493;-79
2022/03/19 00:36:06;;;;;;;7.45;2.53;;;4.50;99.90;;;;;;4805725;29;20047;-79
2022/03/19 00:38:32;;;;;;;10.60;3.45;;;4.40;99.90;;;;;;4815250;29;20489;-78
2022/03/19 00:40:58;;;;;;;6.50;2.63;;;4.50;99.90;;;;;;4822943;29;20123;-80
2022/03/19 00:43:23;;;;;;;8.45;2.40;;;4.70;99.90;;;;;;4815277;29;20055;-80
2022/03/19 00:45:49;;;;;;;8.73;3.17;;;4.40;99.90;;;;;;4805633;29;20108;-79
2022/03/19 00:48:16;;;;;;;5.50;2.47;;;4.60;99.90;;;;;;4809609;29;20061;-78
2022/03/19 00:50:43;;;;;;;7.53;2.70;;;4.30;99.90;;;;;;4806360;29;20400;-79
2022/03/19 00:53:09;;;;;;;9.55;2.80;;;4.40;99.90;;;;;;4811195;29;20055;-79
2022/03/19 00:55:34;;;;;;;7.28;2.50;;;4.30;99.90;;;;;;4804173;29;20050;-79
2022/03/19 00:58:00;;;;;;;9.23;2.75;;;4.30;99.90;;;;;;4836872;29;20396;-80
2022/03/19 01:00:26;;;;;;;7.03;2.42;;;4.30;99.90;;;;;;4832993;29;20092;-80
2022/03/19 01:02:54;;;;;;;6.38;2.22;;;4.70;99.90;;;;;;4823131;29;20432;-80
2022/03/19 01:05:22;;;;;;;7.88;2.80;;;4.30;99.90;;;;;;4810710;29;20059;-79
2022/03/19 01:07:53;;;;;;;10.95;3.05;;;4.30;99.90;;;;;;4815896;29;20081;-79
2022/03/19 01:10:25;;;;;;;13.93;3.10;;;4.80;99.90;;;;;;4820958;29;20062;-79
2022/03/19 01:12:53;;;;;;;21.05;3.95;;;4.30;99.90;;;;;;4833169;29;20050;-80
2022/03/19 01:15:19;;;;;;;7.13;2.92;;;4.40;99.90;;;;;;4804794;29;20077;-79
2022/03/19 01:17:45;;;;;;;11.40;2.92;;;4.30;99.90;;;;;;4835075;29;20058;-79
2022/03/19 01:20:13;;;;;;;11.85;3.28;;;4.20;99.90;;;;;;4805975;29;20065;-79
2022/03/19 01:22:40;;;;;;;9.00;3.35;;;4.20;99.90;;;;;;4811425;29;20065;-79
2022/03/19 01:25:07;;;;;;;9.98;2.85;;;4.10;99.90;;;;;;4822854;29;20072;-79
2022/03/19 01:27:34;;;;;;;8.35;2.80;;;4.10;99.90;;;;;;4821949;29;20090;-79
2022/03/19 01:30:01;;;;;;;6.40;2.88;;;4.30;99.90;;;;;;4805115;29;20130;-80
2022/03/19 01:32:27;;;;;;;5.97;2.97;;;4.10;99.90;;;;;;4833739;29;20061;-80
2022/03/19 01:34:56;;;;;;;11.15;3.50;;;4.10;99.90;;;;;;4804396;29;20166;-80
2022/03/19 01:37:22;;;;;;;12.10;3.05;;;4.10;99.90;;;;;;4804071;29;20497;-79
2022/03/19 01:39:48;;;;;;;7.70;2.65;;;4.10;99.90;;;;;;4818104;29;20401;-80
2022/03/19 01:42:24;;;;;;;7.35;2.60;;;4.00;99.90;;;;;;4811446;29;20131;-79
2022/03/19 01:44:50;;;;;;;6.15;2.55;;;4.00;99.90;;;;;;4835423;29;20051;-79
2022/03/19 01:47:16;;;;;;;8.35;2.90;;;4.00;99.90;;;;;;4814074;29;20063;-80
2022/03/19 01:49:42;;;;;;;7.15;2.45;;;4.70;99.90;;;;;;4837136;29;20193;-80
2022/03/19 01:52:07;;;;;;;7.53;2.50;;;3.90;99.90;;;;;;4808144;29;20459;-80
2022/03/19 01:54:36;;;;;;;5.63;2.85;;;3.90;99.90;;;;;;4808069;29;20054;-79
2022/03/19 01:57:02;;;;;;;6.45;2.40;;;3.90;99.90;;;;;;4806575;29;20090;-80
2022/03/19 01:59:33;;;;;;;10.00;3.38;;;3.80;99.90;;;;;;4816576;29;20062;-80
2022/03/19 02:01:59;;;;;;;9.95;3.42;;;3.90;99.90;;;;;;4826039;29;20049;-80
2022/03/19 02:04:24;;;;;;;9.13;3.10;;;3.80;99.90;;;;;;4824525;29;20083;-81
2022/03/19 02:06:51;;;;;;;10.27;2.90;;;3.80;99.90;;;;;;4812667;29;20047;-80
2022/03/19 02:09:17;;;;;;;10.52;2.42;;;3.80;99.90;;;;;;4824634;29;20058;-80
2022/03/19 02:11:44;;;;;;;5.03;2.03;;;3.70;99.90;;;;;;4821108;29;20051;-80
2022/03/19 02:14:09;;;;;;;9.73;2.67;;;3.80;99.90;;;;;;4806894;29;20063;-80
2022/03/19 02:16:35;;;;;;;6.75;2.60;;;3.70;99.90;;;;;;4806852;29;20493;-80
2022/03/19 02:19:01;;;;;;;8.65;2.33;;;3.70;99.90;;;;;;4811392;29;20050;-80
2022/03/19 02:21:37;;;;;;;8.23;2.55;;;3.60;99.90;;;;;;4836597;29;20057;-80
2022/03/19 02:26:47;;;;;;;9.60;2.70;;;3.60;99.90;;;;;;4807497;29;20066;-80
2022/03/19 02:29:13;;;;;;;9.73;2.50;;;3.60;99.90;;;;;;4836633;29;20055;-80
2022/03/19 02:31:40;;;;;;;7.47;3.03;;;4.00;99.90;;;;;;4806405;29;20062;-81
2022/03/19 02:34:09;;;;;;;6.18;3.00;;;3.60;99.90;;;;;;4807275;29;20061;-80
2022/03/19 02:36:41;;;;;;;9.52;3.60;;;3.80;99.90;;;;;;4824159;29;20057;-78
2022/03/19 02:39:17;;;;;;;9.82;3.00;;;3.60;99.90;;;;;;4824257;29;20058;-80
2022/03/19 02:41:50;;;;;;;9.63;3.15;;;3.80;99.90;;;;;;4816266;29;20135;-81
2022/03/19 02:44:19;;;;;;;12.00;4.22;;;3.60;99.90;;;;;;4836385;29;20083;-80
2022/03/19 02:46:53;;;;;;;7.45;2.53;;;3.50;99.90;;;;;;4807295;29;20058;-80
2022/03/19 02:49:19;;;;;;;7.70;2.65;;;3.50;99.90;;;;;;4813947;29;20510;-80
2022/03/19 02:51:46;;;;;;;10.95;3.03;;;3.50;99.90;;;;;;4820934;29;20066;-80
2022/03/19 02:54:14;;;;;;;9.88;2.80;;;3.40;99.90;;;;;;4806108;29;20050;-80
2022/03/19 02:56:40;;;;;;;6.07;2.67;;;3.90;99.90;;;;;;4805353;29;20630;-80
2022/03/19 02:59:12;;;;;;;10.27;3.15;;;3.70;99.90;;;;;;4817778;29;20056;-80
2022/03/19 03:01:41;;;;;;;12.80;3.17;;;3.40;99.90;;;;;;4835704;29;20055;-79
2022/03/19 03:04:07;;;;;;;18.02;3.30;;;3.40;99.90;;;;;;4806875;29;20047;-80
2022/03/19 03:06:37;;;;;;;11.20;3.47;;;3.30;99.90;;;;;;4839113;29;20057;-80
2022/03/19 03:09:03;;;;;;;12.68;3.05;;;3.50;99.90;;;;;;4842581;29;20050;-80
2022/03/19 03:11:30;;;;;;;9.82;3.35;;;3.30;99.90;;;;;;4809678;29;20050;-80
2022/03/19 03:13:55;;;;;;;10.38;3.70;;;3.40;99.90;;;;;;4817547;29;20073;-80
2022/03/19 03:16:21;;;;;;;5.78;3.20;;;3.60;99.90;;;;;;4820684;29;20062;-79
2022/03/19 03:18:47;;;;;;;7.70;3.00;;;3.30;99.90;;;;;;4806661;29;20078;-80
2022/03/19 03:21:13;;;;;;;9.50;3.20;;;3.30;99.90;;;;;;4806417;29;20050;-80
2022/03/19 03:23:39;;;;;;;9.27;2.83;;;3.40;99.90;;;;;;4835366;29;20474;-80
2022/03/19 03:26:05;;;;;;;6.15;2.75;;;3.30;99.90;;;;;;4809969;29;20115;-80
2022/03/19 03:28:31;;;;;;;8.13;3.42;;;3.50;99.90;;;;;;4823551;29;20054;-80
2022/03/19 03:30:56;;;;;;;11.30;3.15;;;3.30;99.90;;;;;;4824595;29;20179;-80
2022/03/19 03:33:23;;;;;;;9.68;3.03;;;3.20;99.90;;;;;;4809378;29;20113;-80
2022/03/19 03:35:49;;;;;;;11.20;3.80;;;3.20;99.90;;;;;;4820626;29;20065;-80
2022/03/19 03:38:15;;;;;;;10.35;2.85;;;3.70;99.90;;;;;;4834723;29;20056;-80
2022/03/19 03:40:41;;;;;;;5.00;2.60;;;3.20;99.90;;;;;;4835189;29;20061;-80
2022/03/19 03:43:08;;;;;;;7.53;3.17;;;3.60;99.90;;;;;;4805569;29;20047;-80
2022/03/19 03:45:35;;;;;;;8.07;3.28;;;3.10;99.90;;;;;;4835658;29;20054;-80
2022/03/19 03:48:01;;;;;;;10.35;3.03;;;2.90;99.90;;;;;;4806301;29;20047;-80
2022/03/19 03:50:28;;;;;;;9.13;4.07;;;2.90;99.90;;;;;;4805989;29;20062;-80
2022/03/19 03:52:54;;;;;;;9.18;4.10;;;2.90;99.90;;;;;;4814532;29;20055;-80
2022/03/19 03:55:20;;;;;;;10.82;3.55;;;2.90;99.90;;;;;;4805508;29;20062;-80
2022/03/19 03:57:46;;;;;;;7.20;3.47;;;2.90;99.90;;;;;;4805791;29;20061;-80
2022/03/19 04:00:12;;;;;;;7.30;2.90;;;2.90;99.90;;;;;;4851649;29;20077;-80
2022/03/19 04:02:37;;;;;;;9.93;3.47;;;2.80;99.90;;;;;;4805726;29;20438;-80
2022/03/19 04:05:05;;;;;;;9.88;4.07;;;2.80;99.90;;;;;;4818104;29;20050;-80
2022/03/19 04:07:31;;;;;;;7.10;3.05;;;2.80;99.90;;;;;;4824199;29;20182;-80
2022/03/19 04:09:57;;;;;;;10.05;3.15;;;2.70;99.90;;;;;;4812194;29;20153;-80
2022/03/19 04:12:22;;;;;;;9.32;3.15;;;2.70;99.90;;;;;;4807511;29;20505;-80
2022/03/19 04:14:49;;;;;;;7.38;2.97;;;2.90;99.90;;;;;;4805556;29;20071;-80
2022/03/19 04:17:15;;;;;;;15.88;3.35;;;2.60;99.90;;;;;;4805036;29;20063;-80
2022/03/19 04:19:41;;;;;;;13.18;4.07;;;2.90;99.90;;;;;;4819659;29;20516;-80
2022/03/19 04:22:07;;;;;;;9.07;3.40;;;2.90;99.90;;;;;;4823436;29;20086;-80
2022/03/19 04:24:34;;;;;;;10.13;3.55;;;2.60;99.90;;;;;;4822433;29;20054;-80
2022/03/19 04:26:59;;;;;;;11.30;3.70;;;2.90;99.90;;;;;;4837426;29;20060;-80
2022/03/19 04:29:25;;;;;;;10.93;3.45;;;2.80;99.90;;;;;;4822095;29;20149;-79
2022/03/19 04:31:51;;;;;;;7.70;3.53;;;2.60;99.90;;;;;;4816351;29;20131;-80
2022/03/19 04:34:17;;;;;;;7.88;3.50;;;3.10;99.90;;;;;;4833764;29;20043;-80
2022/03/19 04:36:43;;;;;;;9.80;3.97;;;3.20;99.90;;;;;;4810264;29;20158;-80
2022/03/19 04:39:08;;;;;;;10.02;3.40;;;2.50;99.90;;;;;;4814293;29;20164;-79
2022/03/19 04:41:36;;;;;;;9.63;3.30;;;2.90;99.90;;;;;;4815605;29;20082;-80
2022/03/19 04:44:02;;;;;;;10.05;4.03;;;2.50;99.90;;;;;;4830685;29;20153;-80
2022/03/19 04:46:28;;;;;;;8.23;3.33;;;2.50;99.90;;;;;;4821865;29;20503;-80
2022/03/19 04:48:54;;;;;;;7.97;3.17;;;2.50;99.90;;;;;;4819404;29;20054;-80
2022/03/19 04:51:21;;;;;;;7.35;3.20;;;2.40;99.90;;;;;;4805184;29;20055;-79
2022/03/19 04:53:51;;;;;;;11.82;3.95;;;2.90;99.90;;;;;;4819891;29;20054;-80
2022/03/19 04:56:19;;;;;;;8.25;3.83;;;2.40;99.90;;;;;;4834040;29;20130;-80
2022/03/19 04:58:45;;;;;;;8.80;3.75;;;3.10;99.90;;;;;;4840491;29;20494;-80
2022/03/19 05:01:10;;;;;;;8.88;3.55;;;2.30;99.90;;;;;;4815480;29;20054;-80
2022/03/19 05:03:36;;;;;;;9.25;3.70;;;2.90;99.90;;;;;;4834434;29;20502;-80
2022/03/19 05:06:02;;;;;;;7.60;3.33;;;2.90;99.90;;;;;;4803610;29;20061;-79
2022/03/19 05:08:28;;;;;;;7.72;3.58;;;2.30;99.90;;;;;;4814423;29;20059;-80
2022/03/19 05:11:13;;;;;;;6.63;3.90;;;2.50;99.90;;;;;;4804883;29;20051;-80
2022/03/19 05:13:48;;;;;;;8.82;3.50;;;2.50;99.90;;;;;;4807698;29;20145;-80
2022/03/19 05:16:18;;;;;;;8.70;3.40;;;2.30;99.90;;;;;;4822710;29;20105;-80
2022/03/19 05:18:44;;;;;;;12.57;4.65;;;2.30;99.90;;;;;;4811116;29;20364;-80
2022/03/19 05:21:12;;;;;;;11.70;3.95;;;2.20;99.90;;;;;;4821597;29;20058;-80
2022/03/19 05:23:38;;;;;;;10.30;4.20;;;2.20;99.90;;;;;;4803477;29;20109;-80
2022/03/19 05:26:04;;;;;;;8.48;3.53;;;2.20;99.90;;;;;;4804772;29;20062;-80
2022/03/19 05:28:30;;;;;;;13.35;4.45;;;2.30;99.90;;;;;;4821479;29;20446;-80
2022/03/19 05:31:01;;;;;;;7.47;3.58;;;2.20;99.90;;;;;;4807460;29;20067;-80
2022/03/19 05:36:27;;;;;;;15.07;4.80;;;2.30;99.90;;;;;;4804934;29;20051;-80
2022/03/19 05:38:53;;;;;;;9.35;4.10;;;2.30;99.90;;;;;;4819831;29;20054;-80
2022/03/19 05:41:19;;;;;;;10.85;4.13;;;2.60;99.90;;;;;;4805581;29;20103;-80
2022/03/19 05:43:45;;;;;;;10.20;4.30;;;2.20;99.90;;;;;;4816022;29;20051;-80
2022/03/19 05:46:10;;;;;;;6.15;4.25;;;2.20;99.90;;;;;;4821791;29;20466;-80
2022/03/19 05:48:36;;;;;;;9.10;3.78;;;2.10;99.90;;;;;;4802535;29;20054;-81
2022/03/19 05:51:02;;;;;;;8.25;3.67;;;2.10;99.90;;;;;;4804553;29;20058;-80
2022/03/19 05:53:28;;;;;;;8.95;4.00;;;2.10;99.90;;;;;;4803265;29;20471;-80
2022/03/19 05:55:54;;;;;;;8.25;3.65;;;2.40;99.90;;;;;;4803126;29;20050;-80
2022/03/19 05:58:19;;;;;;;6.45;3.55;;;2.10;99.90;;;;;;4836770;29;20477;-80
2022/03/19 06:00:45;;;;;;;11.90;4.57;;;2.30;99.90;;;;;;4829156;29;20798;-81
2022/03/19 06:03:11;;;;;;;13.02;4.90;;;2.10;99.90;;;;;;4821594;29;20489;-81
2022/03/19 06:05:37;;;;;;;9.98;4.18;;;2.20;99.90;;;;;;4808456;29;20058;-80
2022/03/19 06:08:04;;;;;;;11.13;4.88;;;2.40;99.90;;;;;;4814740;29;20134;-81
2022/03/19 06:10:29;;;;;;;12.23;4.53;;;2.10;99.90;;;;;;4802969;29;20066;-81
2022/03/19 06:12:55;;;;;;;12.23;4.90;;;2.30;99.90;;;;;;4813208;29;20409;-80
2022/03/19 06:15:21;;;;;;;11.60;4.05;;;2.30;99.90;;;;;;4804453;29;20063;-81
2022/03/19 06:17:47;;;;;;;9.85;4.18;;;2.40;99.90;;;;;;4833616;29;20058;-80
2022/03/19 06:20:12;;;;;;;10.10;4.13;;;2.40;99.90;;;;;;4804338;29;20524;-80
2022/03/19 06:22:41;;;;;;;14.93;4.80;;;2.80;99.90;;;;;;4804224;29;20054;-81
2022/03/19 06:25:07;;;;;;;8.65;4.13;;;2.50;99.90;;;;;;4808768;29;20053;-80
2022/03/19 06:27:33;;;;;;;10.95;3.85;;;2.60;99.90;;;;;;4809396;29;20070;-80
2022/03/19 06:29:59;;;;;;;13.60;4.80;;;2.80;99.90;;;;;;4812939;29;20757;-80
2022/03/19 06:32:24;;;;;;;8.45;4.50;;;2.70;99.90;;;;;;4827813;29;20054;-81
2022/03/19 06:34:50;;;;;;;8.90;4.78;;;2.70;99.90;;;;;;4814908;29;20051;-80
2022/03/19 06:37:22;;;;;;;10.63;4.95;;;2.80;99.90;;;;;;4807151;29;20509;-81
2022/03/19 06:39:57;;;;;;;10.00;4.35;;;2.80;99.90;;;;;;4806160;29;20051;-80
2022/03/19 06:42:23;;;;;;;11.05;5.00;;;2.90;99.90;;;;;;4805517;29;20056;-81
2022/03/19 06:44:49;;;;;;;10.70;4.65;;;3.30;99.90;;;;;;4839543;29;20508;-80
2022/03/19 06:47:15;;;;;;;7.82;4.00;;;3.20;99.90;;;;;;4824773;29;20428;-81
2022/03/19 06:49:41;;;;;;;11.00;4.63;;;3.30;99.90;;;;;;4819002;29;20058;-80
2022/03/19 06:52:07;;;;;;;8.88;4.13;;;3.50;99.90;;;;;;4836450;29;20462;-80
2022/03/19 06:54:33;;;;;;;10.25;4.90;;;3.80;99.90;;;;;;4805931;29;20046;-81
2022/03/19 06:56:59;;;;;;;9.25;4.70;;;3.70;99.90;;;;;;4816136;29;20054;-81
2022/03/19 06:59:24;;;;;;;12.80;4.65;;;3.80;99.90;;;;;;4828298;29;20100;-81
2022/03/19 07:01:50;;;;;;;13.90;4.38;;;3.90;99.90;;;;;;4811175;29;20046;-80
2022/03/19 07:04:16;;;;;;;10.73;4.15;;;4.10;99.90;;;;;;4806751;29;20122;-81
2022/03/19 07:06:42;;;;;;;14.02;5.55;;;4.20;99.90;;;;;;4805639;29;20457;-80
2022/03/19 07:09:08;;;;;;;9.50;4.20;;;4.40;99.90;;;;;;4809517;29;20047;-80
2022/03/19 07:11:35;;;;;;;8.85;3.90;;;4.40;99.90;;;;;;4813046;29;20058;-80
2022/03/19 07:14:03;;;;;;;10.43;4.47;;;4.70;99.90;;;;;;4823978;29;20101;-80
2022/03/19 07:16:29;;;;;;;11.90;4.75;;;4.60;99.90;;;;;;4824570;29;20115;-80
2022/03/19 07:18:55;;;;;;;11.45;4.60;;;4.70;99.90;;;;;;4838819;29;20109;-81
2022/03/19 07:21:22;;;;;;;11.93;4.80;;;4.90;99.90;;;;;;4818557;29;20805;-81
2022/03/19 07:23:48;;;;;;;12.52;5.38;;;5.00;99.90;;;;;;4806255;29;20142;-80
2022/03/19 07:26:14;;;;;;;11.32;4.60;;;5.10;99.90;;;;;;4834982;29;20558;-81
2022/03/19 07:28:40;;;;;;;9.13;4.25;;;5.20;99.90;;;;;;4820498;29;20145;-80
2022/03/19 07:31:06;;;;;;;13.48;4.43;;;5.40;99.90;;;;;;4806310;29;20058;-81
2022/03/19 07:33:34;;;;;;;12.38;4.80;;;5.50;99.90;;;;;;4808450;29;20055;-80
2022/03/19 07:36:04;;;;;;;9.40;4.65;;;5.70;99.90;;;;;;4806602;29;20059;-80
2022/03/19 07:38:31;;;;;;;13.02;4.50;;;5.80;99.90;;;;;;4805210;29;20054;-82
2022/03/19 07:43:42;;;;;;;16.70;5.53;;;6.00;99.90;;;;;;4804233;29;20050;-80
2022/03/19 07:46:09;;;;;;;10.50;4.20;;;6.10;99.90;;;;;;4830975;29;20054;-80
2022/03/19 07:48:34;;;;;;;10.30;4.28;;;6.50;99.90;;;;;;4822911;29;20461;-80
2022/03/19 07:51:00;;;;;;;12.27;4.43;;;6.30;99.90;;;;;;4823426;29;20054;-81
2022/03/19 07:53:26;;;;;;;10.93;4.55;;;6.40;99.90;;;;;;4823025;29;20579;-81
2022/03/19 07:55:53;;;;;;;9.48;3.80;;;6.60;99.90;;;;;;4821801;29;20052;-81
2022/03/19 07:58:19;;;;;;;9.80;4.28;;;6.70;99.90;;;;;;4835781;29;20067;-81
2022/03/19 08:00:45;;;;;;;8.63;4.45;;;6.80;99.90;;;;;;4835747;29;20065;-81
2022/03/19 08:03:11;;;;;;;10.35;4.15;;;6.80;99.90;;;;;;4822524;29;20125;-82
2022/03/19 08:05:42;;;;;;;9.05;4.03;;;6.90;99.90;;;;;;4817355;29;20137;-81
2022/03/19 08:08:08;;;;;;;9.48;3.72;;;7.00;99.90;;;;;;4804293;29;20047;-81
2022/03/19 08:10:36;;;;;;;10.10;4.25;;;7.10;99.90;;;;;;4813910;29;20054;-81
2022/03/19 08:13:04;;;;;;;12.52;4.50;;;7.20;99.90;;;;;;4805580;29;20058;-81
2022/03/19 08:15:31;;;;;;;10.07;3.80;;;7.30;99.90;;;;;;4805908;29;20062;-82
2022/03/19 08:17:57;;;;;;;9.35;3.78;;;7.40;99.90;;;;;;4834998;29;20059;-81
2022/03/19 08:20:23;;;;;;;13.65;5.25;;;7.60;99.90;;;;;;4833705;29;20043;-81
2022/03/19 08:22:49;;;;;;;8.70;4.75;;;7.70;99.90;;;;;;4818690;29;20054;-81
2022/03/19 08:25:15;;;;;;;10.00;3.63;;;7.80;99.90;;;;;;4805138;29;20049;-81
2022/03/19 08:27:40;;;;;;;9.90;4.22;;;7.90;99.90;;;;;;4835028;29;20139;-81
2022/03/19 08:30:09;;;;;;;10.20;4.03;;;8.00;99.90;;;;;;4836616;29;20054;-82
2022/03/19 08:32:34;;;;;;;13.40;3.85;;;8.10;99.90;;;;;;4821966;29;20378;-81
2022/03/19 08:35:00;;;;;;;10.88;5.05;;;8.20;99.90;;;;;;4837434;29;20054;-81
2022/03/19 08:37:26;;;;;;;12.20;3.92;;;8.30;99.90;;;;;;4819973;29;20051;-81
2022/03/19 08:42:38;;;;;;;7.55;3.60;;;8.50;99.90;;;;;;4820810;29;20061;-81
2022/03/19 08:45:05;;;;;;;9.10;3.72;;;8.60;99.90;;;;;;4822117;29;20046;-81
2022/03/19 08:47:31;;;;;;;11.07;3.70;;;8.80;99.90;;;;;;4821697;29;20046;-82
2022/03/19 08:49:57;;;;;;;11.82;3.50;;;8.80;99.90;;;;;;4815315;29;20057;-81
2022/03/19 08:52:23;;;;;;;9.88;3.20;;;8.90;99.90;;;;;;4821332;29;20054;-82
2022/03/19 08:54:48;;;;;;;7.20;2.83;;;9.00;99.90;;;;;;4814929;29;20489;-81
2022/03/19 08:57:14;;;;;;;9.55;3.15;;;9.10;99.90;;;;;;4819685;29;20173;-81
2022/03/19 08:59:40;;;;;;;8.05;2.88;;;9.20;99.90;;;;;;4833152;29;20042;-82
2022/03/19 09:02:06;;;;;;;10.52;3.28;;;9.30;99.90;;;;;;4813818;29;20053;-81
2022/03/19 09:04:32;;;;;;;8.93;3.50;;;9.40;99.90;;;;;;4806352;29;20051;-81
2022/03/19 09:06:58;;;;;;;9.88;2.63;;;9.50;99.90;;;;;;4832510;29;20050;-81
2022/03/19 09:09:24;;;;;;;8.38;3.15;;;9.60;99.90;;;;;;4836538;29;20082;-81
2022/03/19 09:11:50;;;;;;;8.45;2.65;;;9.80;99.90;;;;;;4818639;29;20069;-81
2022/03/19 09:14:18;;;;;;;9.13;2.63;;;9.90;99.90;;;;;;4808895;29;20164;-83
2022/03/19 09:16:44;;;;;;;9.73;3.50;;;10.00;99.90;;;;;;4822367;29;20069;-84
2022/03/19 09:19:10;;;;;;;7.30;3.28;;;10.10;99.90;;;;;;4813922;29;20497;-84
2022/03/19 09:21:36;;;;;;;9.75;3.10;;;10.20;99.90;;;;;;4821638;29;20082;-85
2022/03/19 09:24:03;;;;;;;7.13;2.67;;;10.30;99.90;;;;;;4811434;29;20054;-82
2022/03/19 09:26:29;;;;;;;9.43;2.63;;;10.30;99.90;;;;;;4808775;29;20133;-81
2022/03/19 09:28:55;;;;;;;8.00;2.75;;;10.30;99.90;;;;;;4821613;29;20173;-83
2022/03/19 09:31:21;;;;;;;7.65;2.50;;;10.40;99.90;;;;;;4835413;29;20058;-82
2022/03/19 09:33:47;;;;;;;7.32;2.38;;;10.40;99.90;;;;;;4821333;29;20054;-82
2022/03/19 09:36:14;;;;;;;9.15;2.30;;;10.50;99.90;;;;;;4821644;29;20072;-81
2022/03/19 09:38:41;;;;;;;6.93;2.63;;;10.70;99.90;;;;;;4821117;29;20504;-82
2022/03/19 09:41:07;;;;;;;5.80;2.55;;;10.80;99.90;;;;;;4807957;29;20183;-81
2022/03/19 09:43:34;;;;;;;9.23;2.33;;;11.00;99.90;;;;;;4811158;29;20382;-81
2022/03/19 09:46:02;;;;;;;7.85;2.50;;;11.10;99.90;;;;;;4821428;29;20476;-82
2022/03/19 09:48:28;;;;;;;7.22;2.80;;;11.10;99.90;;;;;;4821212;29;20042;-82
2022/03/19 09:50:56;;;;;;;6.32;2.05;;;11.20;99.90;;;;;;4820810;29;20077;-83
2022/03/19 09:53:24;;;;;;;11.13;2.90;;;11.40;99.90;;;;;;4818868;29;20491;-84
2022/03/19 09:55:53;;;;;;;6.00;1.67;;;11.40;99.90;;;;;;4820989;29;20112;-84
2022/03/19 09:58:19;;;;;;;7.53;1.92;;;11.40;99.90;;;;;;4820141;29;20066;-82
2022/03/19 10:00:45;;;;;;;6.50;2.15;;;11.50;99.90;;;;;;4822654;29;20042;-84
2022/03/19 10:03:12;;;;;;;7.47;2.17;;;11.70;99.90;;;;;;4822106;29;20050;-84
2022/03/19 10:08:41;;;;;;;6.10;2.10;;;11.90;99.90;;;;;;4823991;29;20132;-83
2022/03/19 10:11:13;;;;;;;4.18;1.52;;;12.00;99.90;;;;;;4822025;29;20141;-82
2022/03/19 10:13:44;;;;;;;7.03;1.60;;;12.10;99.90;;;;;;4817894;29;20055;-84
2022/03/19 10:16:22;;;;;;;8.20;2.25;;;12.20;99.90;;;;;;4823192;29;20150;-88
2022/03/19 10:19:13;;;;;;;6.88;2.45;;;12.30;99.90;;;;;;4824106;29;20054;-86
2022/03/19 10:21:42;;;;;;;8.63;2.03;;;12.50;99.90;;;;;;4828604;29;20066;-86
2022/03/19 10:24:24;;;;;;;8.38;2.30;;;12.70;99.90;;;;;;4821994;29;20038;-86
2022/03/19 10:26:50;;;;;;;7.28;2.13;;;12.90;99.90;;;;;;4836525;29;20050;-88
2022/03/19 10:29:22;;;;;;;7.10;2.20;;;13.10;99.90;;;;;;4821770;29;20077;-85
2022/03/19 10:31:50;;;;;;;6.25;2.10;;;13.20;99.90;;;;;;4817997;29;20058;-84
2022/03/19 10:34:16;;;;;;;5.75;1.88;;;13.30;99.90;;;;;;4815600;29;20078;-84
2022/03/19 10:36:45;;;;;;;6.22;1.95;;;13.50;99.90;;;;;;4806227;29;20062;-85
2022/03/19 10:39:19;;;;;;;5.20;2.03;;;13.70;99.90;;;;;;4816410;29;20515;-85
2022/03/19 10:41:46;;;;;;;7.00;2.25;;;13.80;99.90;;;;;;4820812;29;20051;-84
2022/03/19 10:44:19;;;;;;;5.93;2.00;;;14.00;99.90;;;;;;4818040;29;20524;-83
2022/03/19 10:46:59;;;;;;;10.95;2.45;;;14.00;99.90;;;;;;4810570;29;20141;-83
2022/03/19 10:49:28;;;;;;;6.43;2.20;;;14.10;99.90;;;;;;4818408;29;20524;-82
2022/03/19 10:51:55;;;;;;;4.70;1.90;;;14.10;99.90;;;;;;4820239;29;20058;-85
2022/03/19 10:54:22;;;;;;;6.45;2.20;;;14.10;99.90;;;;;;4815449;29;20058;-85
2022/03/19 10:56:49;;;;;;;5.18;1.73;;;14.20;99.90;;;;;;4815209;29;20054;-86
2022/03/19 10:59:15;;;;;;;6.50;1.80;;;14.20;99.90;;;;;;4813147;29;20401;-82
2022/03/19 11:01:42;;;;;;;4.80;1.70;;;14.30;99.90;;;;;;4837497;29;20507;-85
2022/03/19 11:04:10;;;;;;;4.65;1.60;;;14.30;99.90;;;;;;4822980;29;20050;-85
2022/03/19 11:06:40;;;;;;;5.38;1.73;;;14.40;99.90;;;;;;4823743;29;20050;-84
2022/03/19 11:09:10;;;;;;;6.43;1.92;;;14.50;99.90;;;;;;4823836;29;20121;-85
2022/03/19 11:11:38;;;;;;;5.68;1.80;;;14.50;99.90;;;;;;4823094;29;20058;-84
2022/03/19 11:14:07;;;;;;;7.50;1.90;;;14.50;99.90;;;;;;4819832;29;20083;-84
2022/03/19 11:16:36;;;;;;;3.67;1.42;;;14.50;99.90;;;;;;4821790;29;20511;-83
2022/03/19 11:19:04;;;;;;;4.18;2.22;;;14.50;99.90;;;;;;4819733;29;20058;-84
2022/03/19 11:21:31;;;;;;;4.03;1.70;;;14.40;99.90;;;;;;4823663;29;20187;-86
2022/03/19 11:24:23;;;;;;;6.40;2.10;;;14.30;99.90;;;;;;4819141;29;20053;-84
2022/03/19 11:26:49;;;;;;;7.20;2.50;;;14.40;99.90;;;;;;4822895;29;20077;-84
2022/03/19 11:29:16;;;;;;;4.50;1.88;;;14.30;99.90;;;;;;4821606;29;20281;-88
2022/03/19 11:31:43;;;;;;;6.40;1.98;;;14.30;99.90;;;;;;4818866;29;20079;-86
2022/03/19 11:34:15;;;;;;;5.60;2.17;;;14.30;99.90;;;;;;4815675;29;20106;-83
2022/03/19 11:37:02;;;;;;;3.65;1.90;;;14.40;99.90;;;;;;4820023;29;20058;-86
2022/03/19 11:39:28;;;;;;;4.18;1.85;;;14.40;99.90;;;;;;4815432;29;20047;-86
2022/03/19 11:41:54;;;;;;;5.07;1.92;;;14.50;99.90;;;;;;4819633;29;20119;-85
2022/03/19 11:44:23;;;;;;;5.13;1.65;;;14.60;99.90;;;;;;4817668;29;20055;-87
2022/03/19 11:47:01;;;;;;;4.40;1.83;;;14.70;99.90;;;;;;4813477;29;20122;-87
2022/03/19 11:49:46;;;;;;;4.78;1.58;;;14.90;99.90;;;;;;4817651;29;20714;-86
2022/03/19 11:52:47;;;;;;;5.82;1.83;;;14.90;99.90;;;;;;4814959;29;20103;-86
2022/03/19 11:55:17;;;;;;;3.10;1.65;;;14.80;99.90;;;;;;4833859;29;20528;-87
2022/03/19 11:57:47;;;;;;;6.78;1.65;;;14.70;99.90;;;;;;4819357;29;20058;-85
2022/03/19 12:00:18;;;;;;;3.88;1.55;;;14.60;99.90;;;;;;4813811;29;20043;-88
2022/03/19 12:03:16;;;;;;;4.82;1.63;;;14.50;99.90;;;;;;4834587;29;20051;-86
2022/03/19 12:05:42;;;;;;;3.17;1.27;;;14.40;99.90;;;;;;4818242;29;20070;-83
2022/03/19 12:08:18;;;;;;;4.45;1.40;;;14.60;99.90;;;;;;4818283;29;20583;-85
2022/03/19 12:10:58;;;;;;;3.47;1.40;;;14.90;99.90;;;;;;4817887;29;20130;-88
2022/03/19 12:13:26;;;;;;;5.28;1.63;;;15.20;99.90;;;;;;4816163;29;20121;-82
2022/03/19 12:15:53;;;;;;;7.28;1.60;;;15.00;99.90;;;;;;4817144;29;20082;-86
2022/03/19 12:18:24;;;;;;;4.20;1.65;;;14.80;99.90;;;;;;4821725;29;20411;-87
2022/03/19 12:20:51;;;;;;;4.32;1.88;;;14.70;99.90;;;;;;4833043;29;20043;-88
2022/03/19 12:23:18;;;;;;;3.30;1.50;;;14.60;99.90;;;;;;4815744;29;20138;-86
2022/03/19 12:26:10;;;;;;;3.42;1.40;;;14.40;99.90;;;;;;4819841;29;20070;-79
2022/03/19 12:28:36;;;;;;;4.55;1.67;;;14.50;99.90;;;;;;4818296;29;20503;-85
2022/03/19 12:31:14;;;;;;;4.00;1.65;;;14.40;99.90;;;;;;4835859;29;20110;-83
2022/03/19 12:33:40;;;;;;;3.65;1.60;;;14.30;99.90;;;;;;4814184;29;20081;-82
2022/03/19 12:36:15;;;;;;;3.40;1.52;;;14.30;99.90;;;;;;4817096;29;20063;-84
2022/03/19 12:38:41;;;;;;;3.40;1.40;;;14.30;99.90;;;;;;4805817;29;20092;-88
2022/03/19 12:41:31;;;;;;;3.88;1.80;;;14.40;99.90;;;;;;4820290;29;20039;-83
2022/03/19 12:44:00;;;;;;;3.72;1.75;;;14.60;99.90;;;;;;4815224;29;20533;-84
2022/03/19 12:46:35;;;;;;;4.30;1.77;;;15.10;99.90;;;;;;4821146;29;20066;-82
2022/03/19 12:49:28;;;;;;;4.70;1.60;;;15.50;99.90;;;;;;4820561;29;20057;-84
2022/03/19 12:51:54;;;;;;;6.63;1.63;;;15.90;99.90;;;;;;4792479;29;20202;-83
2022/03/19 12:54:31;;;;;;;5.72;1.50;;;16.20;99.90;;;;;;4819312;29;20492;-87
2022/03/19 12:57:23;;;;;;;3.65;1.42;;;16.40;99.90;;;;;;4821294;29;20050;-85
2022/03/19 12:59:57;;;;;;;4.75;1.48;;;16.80;96.50;;;;;;4809133;29;20111;-85
2022/03/19 13:02:24;;;;;;;4.55;1.20;;;17.20;98.80;;;;;;4802189;29;20134;-84
2022/03/19 13:04:50;;;;;;;3.67;1.20;;;17.40;97.60;;;;;;4819757;29;20058;-84
2022/03/19 13:07:17;;;;;;;4.88;1.90;;;17.40;97.00;;;;;;4817483;29;20050;-85
2022/03/19 13:09:43;;;;;;;3.58;1.30;;;17.60;96.00;;;;;;4823808;29;20054;-83